Aérodrome :
LOGIN :

S'inscrire | Disclaimer

   EN    FR    IT 

 










Légende :    VFR   VFR Marginal   IFR   IFR Intensif   IFR Très Intensif
Visi : 
Plafond : 
>= 8 km
>= 3000ft
5 à 8 km
1000 à 3000 ft
1500m à 5 km
500 à 1000 ft
800 à 1500m
200 à 500 ft
< 800m
< 200 ft
Symboles :   Orages  Brouillard  Fortes neiges  Fortes précipitations  Vent > 20 kt
SIGMETs :   Divers  Orages  Givrage  Turbulence  Onde Orograph.  Cendres Volcan.







- Altitude de l'aérodrome : 458 ft
- Voir les cartes d'approche


LFSI - St-Dizier

DERNIER METAR :
  • 211000Z AUTO VRB03KT CAVOK 20/10 Q1024

METARs EXPIRÉS :
  • 210930Z AUTO VRB03KT CAVOK 19/10 Q1024
  • 210900Z AUTO VRB02KT CAVOK 18/11 Q1024
  • 210830Z AUTO 00000KT CAVOK 17/11 Q1024
  • 210800Z AUTO VRB01KT CAVOK 16/11 Q1024
  • 210730Z AUTO 11003KT CAVOK 16/11 Q1024

TAF TAF LFSI
Valide du 21 à 09h jusqu'au 22 à 09h UTC


210800Z 2109/2209 09004KT CAVOK
Pas de NOTAMs connus pour ce terrain.



MET'MAP, la Météo Aéronautique d'un coup d'oeil ! - Copyright ORBIFLY Décembre 2007 - Disclaimer

ORBIFLY MET'MAP TEAM :

Programmation & Développement : Alexandra Zaïnal
Conception & Développement : Baudouin d'Aumeries
Co-Programmation & Développement : Marc-Olivier Méhu
Soutien technique & logistique : Manuel Goepfert

Contact : metmap@orbifly.com




SOURCES & CREDITS :

   NOAA